Airway Heights, Washington
Current Conditions -  °F | °C
As of 1:53 PM on Monday 20 Oct 2014 (Local Time) from KGEG Reporting Station
Broken Clouds Broken Clouds  
Wind Chill: 67°   Ceiling: 17000
Heat Index: 67°   Visibility: 10mi
Dew Point: 43°   Wind: 15mph
Humidity: 42%   Direction: 220°SW
Pressure: 29.76"   Gusts: NA
Location:  47.64°N, 117.59°W
Report Text: KGEG 202053Z 22013KT 10SM SCT140 BKN170 19/06 A2976 RMK AO2 SLP070 VIRGA NE-SE-SW ACC NE-0HD-SW T01940061 55005
Loading
Personal Weather Stations






























Interactive Weather Map
Tropical Storm Tracking
New forecast layout! Learn more

10-Day Weather Forecast

Advertisements
Track Severe Weather on mobile